Time,TemperatureF,DewpointF,PressureIn,WindDirection,WindDirectionDegrees,WindSpeedMPH,WindSpeedGustMPH,Humidity,HourlyPrecipIn,Conditions,Clouds,dailyrainin,SoftwareType,DateUTC
2013-07-06 00:00:00,64.3,46.8,29.71,WSW,257,2.0,3.0,53,0.00,,,0.00,VWS V14.01,2013-07-06 06:00:00,
2013-07-06 00:02:00,58.0,47.1,29.73,West,270,2.0,2.0,67,0.00,,,0.00,VWS V14.01,2013-07-06 06:02:00,
2013-07-06 00:05:00,63.0,46.6,29.71,WSW,249,2.0,3.0,55,0.00,,,0.00,VWS V14.01,2013-07-06 06:05:00,
2013-07-06 00:07:00,57.9,47.8,29.73,West,278,1.0,3.0,69,0.00,,,0.00,VWS V14.01,2013-07-06 06:07:00,
2013-07-06 00:10:00,61.7,46.8,29.71,WSW,250,2.0,3.0,58,0.00,,,0.00,VWS V14.01,2013-07-06 06:10:00,
2013-07-06 00:12:00,56.9,47.2,29.73,East,83,2.0,4.0,70,0.00,,,0.00,VWS V14.01,2013-07-06 06:12:00,
2013-07-06 00:15:00,61.2,46.8,29.71,WSW,257,2.0,3.0,59,0.00,,,0.00,VWS V14.01,2013-07-06 06:15:00,
2013-07-06 00:17:00,57.6,47.5,29.73,East,84,1.0,1.0,69,0.00,,,0.00,VWS V14.01,2013-07-06 06:17:00,
2013-07-06 00:20:00,61.0,47.0,29.72,West,268,1.0,2.0,60,0.00,,,0.00,VWS V14.01,2013-07-06 06:20:00,
2013-07-06 00:22:00,58.0,47.5,29.73,East,84,0.0,1.0,68,0.00,,,0.00,VWS V14.01,2013-07-06 06:22:00,
2013-07-06 00:25:00,60.0,47.0,29.72,NNE,26,1.0,2.0,62,0.00,,,0.00,VWS V14.01,2013-07-06 06:25:00,
2013-07-06 00:27:00,57.9,47.0,29.73,East,85,0.0,0.0,67,0.00,,,0.00,VWS V14.01,2013-07-06 06:27:00,
2013-07-06 00:30:00,59.7,46.7,29.72,ENE,78,0.0,2.0,62,0.00,,,0.00,VWS V14.01,2013-07-06 06:30:00,
2013-07-06 00:32:00,57.6,47.1,29.74,East,83,1.0,1.0,68,0.00,,,0.00,VWS V14.01,2013-07-06 06:32:00,
2013-07-06 00:35:00,59.3,46.7,29.72,ENE,77,0.0,0.0,63,0.00,,,0.00,VWS V14.01,2013-07-06 06:35:00,
2013-07-06 00:37:00,56.5,46.8,29.74,WSW,256,2.0,3.0,70,0.00,,,0.00,VWS V14.01,2013-07-06 06:37:00,
2013-07-06 00:40:00,58.5,47.6,29.73,North,352,1.0,2.0,67,0.00,,,0.00,VWS V14.01,2013-07-06 06:40:00,
2013-07-06 00:42:00,55.3,46.8,29.74,West,267,1.0,2.0,73,0.00,,,0.00,VWS V14.01,2013-07-06 06:42:00,
2013-07-06 00:45:00,57.6,47.5,29.73,West,261,1.0,2.0,69,0.00,,,0.00,VWS V14.01,2013-07-06 06:45:00,
2013-07-06 00:47:00,55.6,47.1,29.74,West,276,1.0,2.0,73,0.00,,,0.00,VWS V14.01,2013-07-06 06:47:00,
2013-07-06 00:50:00,57.8,47.3,29.73,West,276,1.0,2.0,68,0.00,,,0.00,VWS V14.01,2013-07-06 06:50:00,
2013-07-06 00:52:00,55.5,47.4,29.74,West,271,1.0,1.0,74,0.00,,,0.00,VWS V14.01,2013-07-06 06:52:00,
2013-07-06 00:55:00,57.9,47.4,29.73,West,276,0.0,1.0,68,0.00,,,0.00,VWS V14.01,2013-07-06 06:55:00,
2013-07-06 00:57:00,55.4,47.6,29.74,West,273,0.0,0.0,75,0.00,,,0.00,VWS V14.01,2013-07-06 06:57:00,
2013-07-06 01:00:00,58.1,47.2,29.73,West,275,1.0,1.0,67,0.00,,,0.00,VWS V14.01,2013-07-06 07:00:00,
2013-07-06 01:02:00,55.0,48.6,29.74,West,273,1.0,1.0,79,0.00,,,0.00,VWS V14.01,2013-07-06 07:02:00,
2013-07-06 01:05:00,58.1,47.6,29.73,West,268,2.0,2.0,68,0.00,,,0.00,VWS V14.01,2013-07-06 07:05:00,
2013-07-06 01:07:00,54.7,48.3,29.74,West,274,0.0,0.0,79,0.00,,,0.00,VWS V14.01,2013-07-06 07:07:00,
2013-07-06 01:10:00,57.4,47.3,29.73,ENE,74,3.0,4.0,69,0.00,,,0.00,VWS V14.01,2013-07-06 07:10:00,
2013-07-06 01:12:00,54.6,48.9,29.74,West,273,0.0,0.0,81,0.00,,,0.00,VWS V14.01,2013-07-06 07:12:00,
2013-07-06 01:15:00,57.4,47.3,29.73,East,84,1.0,4.0,69,0.00,,,0.00,VWS V14.01,2013-07-06 07:15:00,
2013-07-06 01:17:00,54.5,47.8,29.74,SSW,208,3.0,3.0,78,0.00,,,0.00,VWS V14.01,2013-07-06 07:17:00,
2013-07-06 01:20:00,57.9,47.4,29.73,East,84,0.0,1.0,68,0.00,,,0.00,VWS V14.01,2013-07-06 07:20:00,
2013-07-06 01:22:00,53.6,46.9,29.75,SW,224,2.0,2.0,78,0.00,,,0.00,VWS V14.01,2013-07-06 07:22:00,
2013-07-06 01:25:00,58.0,47.1,29.74,East,84,0.0,1.0,67,0.00,,,0.00,VWS V14.01,2013-07-06 07:25:00,
2013-07-06 01:27:00,53.6,47.9,29.75,SW,215,2.0,2.0,81,0.00,,,0.00,VWS V14.01,2013-07-06 07:27:00,
2013-07-06 01:30:00,57.6,47.1,29.74,East,84,0.0,0.0,68,0.00,,,0.00,VWS V14.01,2013-07-06 07:30:00,
2013-07-06 01:32:00,54.2,47.5,29.75,WSW,245,1.0,2.0,78,0.00,,,0.00,VWS V14.01,2013-07-06 07:32:00,
2013-07-06 01:35:00,57.2,47.1,29.74,West,259,3.0,3.0,69,0.00,,,0.00,VWS V14.01,2013-07-06 07:35:00,
2013-07-06 01:37:00,53.9,46.9,29.75,West,264,2.0,2.0,77,0.00,,,0.00,VWS V14.01,2013-07-06 07:37:00,
2013-07-06 01:40:00,55.3,46.8,29.74,West,273,2.0,3.0,73,0.00,,,0.00,VWS V14.01,2013-07-06 07:40:00,
2013-07-06 01:42:00,53.5,45.8,29.75,West,276,1.0,1.0,75,0.00,,,0.00,VWS V14.01,2013-07-06 07:42:00,
2013-07-06 01:45:00,55.6,47.1,29.74,WNW,283,2.0,2.0,73,0.00,,,0.00,VWS V14.01,2013-07-06 07:45:00,
2013-07-06 01:47:00,53.1,45.4,29.75,West,277,0.0,0.0,75,0.00,,,0.00,VWS V14.01,2013-07-06 07:47:00,
2013-07-06 01:50:00,55.5,47.0,29.74,West,271,1.0,2.0,73,0.00,,,0.00,VWS V14.01,2013-07-06 07:50:00,
2013-07-06 01:52:00,52.8,45.8,29.75,SSE,148,0.0,0.0,77,0.00,,,0.00,VWS V14.01,2013-07-06 07:52:00,
2013-07-06 01:55:00,55.5,47.0,29.74,West,273,0.0,1.0,73,0.00,,,0.00,VWS V14.01,2013-07-06 07:55:00,
2013-07-06 01:57:00,52.5,45.5,29.76,SSW,198,2.0,2.0,77,0.00,,,0.00,VWS V14.01,2013-07-06 07:57:00,
2013-07-06 02:00:00,55.1,48.7,29.74,West,273,1.0,1.0,79,0.00,,,0.00,VWS V14.01,2013-07-06 08:00:00,
2013-07-06 02:02:00,53.0,46.0,29.76,SSW,208,2.0,2.0,77,0.00,,,0.00,VWS V14.01,2013-07-06 08:02:00,
2013-07-06 02:05:00,54.9,48.5,29.74,West,273,0.0,1.0,79,0.00,,,0.00,VWS V14.01,2013-07-06 08:05:00,
2013-07-06 02:07:00,53.0,46.3,29.76,SSW,212,2.0,2.0,78,0.00,,,0.00,VWS V14.01,2013-07-06 08:07:00,
2013-07-06 02:10:00,54.6,48.9,29.74,West,273,0.0,0.0,81,0.00,,,0.00,VWS V14.01,2013-07-06 08:10:00,
2013-07-06 02:12:00,52.9,46.2,29.76,SW,214,0.0,0.0,78,0.00,,,0.00,VWS V14.01,2013-07-06 08:12:00,
2013-07-06 02:15:00,54.6,48.6,29.74,WSW,257,0.0,0.0,80,0.00,,,0.00,VWS V14.01,2013-07-06 08:15:00,
2013-07-06 02:17:00,52.6,46.3,29.76,WNW,293,0.0,2.0,79,0.00,,,0.00,VWS V14.01,2013-07-06 08:17:00,
2013-07-06 02:20:00,53.9,46.9,29.74,SW,222,2.0,3.0,77,0.00,,,0.00,VWS V14.01,2013-07-06 08:20:00,
2013-07-06 02:22:00,51.7,45.4,29.76,NW,325,0.0,0.0,79,0.00,,,0.00,VWS V14.01,2013-07-06 08:22:00,
2013-07-06 02:25:00,53.4,47.7,29.75,SW,214,2.0,3.0,81,0.00,,,0.00,VWS V14.01,2013-07-06 08:25:00,
2013-07-06 02:27:00,51.5,45.9,29.76,NW,325,1.0,1.0,81,0.00,,,0.00,VWS V14.01,2013-07-06 08:27:00,
2013-07-06 02:30:00,53.9,47.2,29.75,WSW,238,2.0,3.0,78,0.00,,,0.00,VWS V14.01,2013-07-06 08:30:00,
2013-07-06 02:32:00,51.2,45.2,29.76,NW,325,0.0,0.0,80,0.00,,,0.00,VWS V14.01,2013-07-06 08:32:00,
2013-07-06 02:35:00,54.1,47.7,29.75,West,269,1.0,2.0,79,0.00,,,0.00,VWS V14.01,2013-07-06 08:35:00,
2013-07-06 02:37:00,51.0,45.4,29.76,NW,325,0.0,0.0,81,0.00,,,0.00,VWS V14.01,2013-07-06 08:37:00,
2013-07-06 02:40:00,53.7,46.0,29.75,WNW,291,1.0,2.0,75,0.00,,,0.00,VWS V14.01,2013-07-06 08:40:00,
2013-07-06 02:42:00,50.9,45.3,29.76,NW,325,0.0,0.0,81,0.00,,,0.00,VWS V14.01,2013-07-06 08:42:00,
2013-07-06 02:45:00,53.3,45.6,29.75,West,277,0.0,1.0,75,0.00,,,0.00,VWS V14.01,2013-07-06 08:45:00,
2013-07-06 02:47:00,50.9,45.3,29.76,NW,325,0.0,0.0,81,0.00,,,0.00,VWS V14.01,2013-07-06 08:47:00,
2013-07-06 02:50:00,52.9,45.5,29.75,SSE,148,0.0,0.0,76,0.00,,,0.00,VWS V14.01,2013-07-06 08:50:00,
2013-07-06 02:52:00,50.6,44.7,29.76,NW,325,0.0,0.0,80,0.00,,,0.00,VWS V14.01,2013-07-06 08:52:00,
2013-07-06 02:55:00,52.6,45.6,29.75,SSE,154,0.0,0.0,77,0.00,,,0.00,VWS V14.01,2013-07-06 08:55:00,
2013-07-06 02:57:00,50.1,44.5,29.77,NW,325,0.0,0.0,81,0.00,,,0.00,VWS V14.01,2013-07-06 08:57:00,
2013-07-06 03:00:00,52.8,46.1,29.76,SSW,208,2.0,3.0,78,0.00,,,0.00,VWS V14.01,2013-07-06 09:00:00,
2013-07-06 03:02:00,49.7,44.4,29.77,NW,317,0.0,0.0,82,0.00,,,0.00,VWS V14.01,2013-07-06 09:02:00,
2013-07-06 03:05:00,53.0,46.3,29.76,SW,226,2.0,3.0,78,0.00,,,0.00,VWS V14.01,2013-07-06 09:05:00,
2013-07-06 03:07:00,49.8,44.8,29.77,WSW,248,2.0,2.0,83,0.00,,,0.00,VWS V14.01,2013-07-06 09:07:00,
2013-07-06 03:10:00,52.9,46.2,29.76,SW,214,0.0,2.0,78,0.00,,,0.00,VWS V14.01,2013-07-06 09:10:00,
2013-07-06 03:12:00,50.4,44.8,29.77,WSW,245,1.0,2.0,81,0.00,,,0.00,VWS V14.01,2013-07-06 09:12:00,
2013-07-06 03:15:00,52.9,46.2,29.76,WNW,293,2.0,2.0,78,0.00,,,0.00,VWS V14.01,2013-07-06 09:15:00,
2013-07-06 03:17:00,50.5,44.9,29.77,West,275,0.0,2.0,81,0.00,,,0.00,VWS V14.01,2013-07-06 09:17:00,
2013-07-06 03:20:00,52.1,45.5,29.76,NW,325,0.0,2.0,78,0.00,,,0.00,VWS V14.01,2013-07-06 09:20:00,
2013-07-06 03:22:00,50.0,44.1,29.77,West,260,1.0,2.0,80,0.00,,,0.00,VWS V14.01,2013-07-06 09:22:00,
2013-07-06 03:25:00,51.5,45.9,29.76,NW,325,0.0,0.0,81,0.00,,,0.00,VWS V14.01,2013-07-06 09:25:00,
2013-07-06 03:27:00,49.0,43.8,29.77,WSW,255,0.0,2.0,82,0.00,,,0.00,VWS V14.01,2013-07-06 09:27:00,
2013-07-06 03:30:00,51.4,45.5,29.76,NW,325,0.0,1.0,80,0.00,,,0.00,VWS V14.01,2013-07-06 09:30:00,
2013-07-06 03:32:00,49.1,44.2,29.77,WSW,256,2.0,2.0,83,0.00,,,0.00,VWS V14.01,2013-07-06 09:32:00,
2013-07-06 03:35:00,51.1,45.5,29.76,NW,325,0.0,0.0,81,0.00,,,0.00,VWS V14.01,2013-07-06 09:35:00,
2013-07-06 03:37:00,49.2,44.3,29.77,WSW,250,2.0,2.0,83,0.00,,,0.00,VWS V14.01,2013-07-06 09:37:00,
2013-07-06 03:40:00,51.0,45.4,29.76,NW,325,0.0,0.0,81,0.00,,,0.00,VWS V14.01,2013-07-06 09:40:00,
2013-07-06 03:42:00,49.2,44.6,29.77,West,280,3.0,3.0,84,0.00,,,0.00,VWS V14.01,2013-07-06 09:42:00,
2013-07-06 03:45:00,50.8,45.2,29.76,NW,325,0.0,0.0,81,0.00,,,0.00,VWS V14.01,2013-07-06 09:45:00,
2013-07-06 03:47:00,49.2,44.3,29.77,West,280,1.0,1.0,83,0.00,,,0.00,VWS V14.01,2013-07-06 09:47:00,
2013-07-06 03:50:00,50.9,45.0,29.76,NW,325,0.0,0.0,80,0.00,,,0.00,VWS V14.01,2013-07-06 09:50:00,
2013-07-06 03:52:00,49.0,44.4,29.78,West,280,0.0,0.0,84,0.00,,,0.00,VWS V14.01,2013-07-06 09:52:00,
2013-07-06 03:55:00,50.3,44.4,29.76,NW,324,0.0,0.0,80,0.00,,,0.00,VWS V14.01,2013-07-06 09:55:00,
2013-07-06 03:57:00,48.9,44.6,29.78,North,11,0.0,0.0,85,0.00,,,0.00,VWS V14.01,2013-07-06 09:57:00,
2013-07-06 04:00:00,49.8,44.5,29.77,NW,318,0.0,0.0,82,0.00,,,0.00,VWS V14.01,2013-07-06 10:00:00,
2013-07-06 04:02:00,48.8,44.5,29.78,NNE,12,0.0,0.0,85,0.00,,,0.00,VWS V14.01,2013-07-06 10:02:00,
2013-07-06 04:05:00,49.7,45.1,29.77,SW,226,0.0,0.0,84,0.00,,,0.00,VWS V14.01,2013-07-06 10:05:00,
2013-07-06 04:07:00,48.6,44.3,29.78,North,11,0.0,0.0,85,0.00,,,0.00,VWS V14.01,2013-07-06 10:07:00,
2013-07-06 04:10:00,50.2,44.9,29.77,WSW,246,1.0,2.0,82,0.00,,,0.00,VWS V14.01,2013-07-06 10:10:00,
2013-07-06 04:12:00,48.4,44.4,29.78,North,10,0.0,0.0,86,0.00,,,0.00,VWS V14.01,2013-07-06 10:12:00,
2013-07-06 04:15:00,50.5,44.6,29.77,WSW,248,1.0,2.0,80,0.00,,,0.00,VWS V14.01,2013-07-06 10:15:00,
2013-07-06 04:17:00,48.9,45.5,29.78,NNW,334,0.0,0.0,88,0.00,,,0.00,VWS V14.01,2013-07-06 10:17:00,
2013-07-06 04:20:00,50.4,44.5,29.77,West,263,2.0,2.0,80,0.00,,,0.00,VWS V14.01,2013-07-06 10:20:00,
2013-07-06 04:22:00,49.2,45.2,29.78,West,260,0.0,0.0,86,0.00,,,0.00,VWS V14.01,2013-07-06 10:22:00,
2013-07-06 04:25:00,49.3,43.7,29.77,West,259,1.0,2.0,81,0.00,,,0.00,VWS V14.01,2013-07-06 10:25:00,
2013-07-06 04:27:00,48.4,44.1,29.78,West,266,3.0,3.0,85,0.00,,,0.00,VWS V14.01,2013-07-06 10:27:00,
2013-07-06 04:30:00,48.9,44.0,29.77,West,266,1.0,2.0,83,0.00,,,0.00,VWS V14.01,2013-07-06 10:30:00,
2013-07-06 04:32:00,47.6,43.6,29.78,West,267,2.0,3.0,86,0.00,,,0.00,VWS V14.01,2013-07-06 10:32:00,
2013-07-06 04:35:00,49.2,44.6,29.77,WSW,249,1.0,2.0,84,0.00,,,0.00,VWS V14.01,2013-07-06 10:35:00,
2013-07-06 04:37:00,47.7,44.0,29.78,West,266,1.0,2.0,87,0.00,,,0.00,VWS V14.01,2013-07-06 10:37:00,
2013-07-06 04:40:00,49.1,44.5,29.77,West,264,1.0,2.0,84,0.00,,,0.00,VWS V14.01,2013-07-06 10:40:00,
2013-07-06 04:42:00,47.9,44.2,29.78,West,263,1.0,1.0,87,0.00,,,0.00,VWS V14.01,2013-07-06 10:42:00,
2013-07-06 04:45:00,49.3,44.4,29.77,West,280,0.0,3.0,83,0.00,,,0.00,VWS V14.01,2013-07-06 10:45:00,
2013-07-06 04:47:00,47.6,43.9,29.78,West,263,0.0,1.0,87,0.00,,,0.00,VWS V14.01,2013-07-06 10:47:00,
2013-07-06 04:50:00,49.0,44.4,29.77,West,280,0.0,1.0,84,0.00,,,0.00,VWS V14.01,2013-07-06 10:50:00,
2013-07-06 04:52:00,47.2,43.5,29.79,NNE,18,2.0,2.0,87,0.00,,,0.00,VWS V14.01,2013-07-06 10:52:00,
2013-07-06 04:55:00,48.9,44.3,29.78,NNE,12,0.0,0.0,84,0.00,,,0.00,VWS V14.01,2013-07-06 10:55:00,
2013-07-06 04:57:00,47.5,44.4,29.78,NNE,18,1.0,1.0,89,0.00,,,0.00,VWS V14.01,2013-07-06 10:57:00,
2013-07-06 05:00:00,48.9,44.6,29.78,North,11,0.0,0.0,85,0.00,,,0.00,VWS V14.01,2013-07-06 11:00:00,
2013-07-06 05:02:00,47.7,44.6,29.79,NNE,17,1.0,1.0,89,0.00,,,0.00,VWS V14.01,2013-07-06 11:02:00,
2013-07-06 05:05:00,48.7,44.4,29.78,NNE,12,0.0,0.0,85,0.00,,,0.00,VWS V14.01,2013-07-06 11:05:00,
2013-07-06 05:07:00,48.3,45.8,29.79,NNE,18,1.0,2.0,91,0.00,,,0.00,VWS V14.01,2013-07-06 11:07:00,
2013-07-06 05:10:00,48.4,44.1,29.78,NNE,12,0.0,0.0,85,0.00,,,0.00,VWS V14.01,2013-07-06 11:10:00,
2013-07-06 05:12:00,48.6,45.5,29.79,NNW,333,0.0,1.0,89,0.00,,,0.00,VWS V14.01,2013-07-06 11:12:00,
2013-07-06 05:15:00,48.7,45.0,29.78,North,11,0.0,0.0,87,0.00,,,0.00,VWS V14.01,2013-07-06 11:15:00,
2013-07-06 05:17:00,48.8,46.0,29.79,WNW,291,1.0,1.0,90,0.00,,,0.00,VWS V14.01,2013-07-06 11:17:00,
2013-07-06 05:20:00,49.2,45.5,29.78,NNW,334,0.0,0.0,87,0.00,,,0.00,VWS V14.01,2013-07-06 11:20:00,
2013-07-06 05:22:00,49.4,46.0,29.79,WNW,291,0.0,0.0,88,0.00,,,0.00,VWS V14.01,2013-07-06 11:22:00,
2013-07-06 05:25:00,48.8,44.5,29.78,West,260,3.0,3.0,85,0.00,,,0.00,VWS V14.01,2013-07-06 11:25:00,
2013-07-06 05:27:00,49.4,45.7,29.79,WNW,291,0.0,0.0,87,0.00,,,0.00,VWS V14.01,2013-07-06 11:27:00,
2013-07-06 05:30:00,47.7,43.7,29.78,WSW,257,3.0,3.0,86,0.00,,,0.00,VWS V14.01,2013-07-06 11:30:00,
2013-07-06 05:33:00,49.3,45.3,29.79,West,275,1.0,2.0,86,0.00,,,0.00,VWS V14.01,2013-07-06 11:33:00,
2013-07-06 05:35:00,47.6,43.9,29.78,West,263,2.0,3.0,87,0.00,,,0.00,VWS V14.01,2013-07-06 11:35:00,
2013-07-06 05:38:00,48.5,44.5,29.79,West,260,2.0,2.0,86,0.00,,,0.00,VWS V14.01,2013-07-06 11:38:00,
2013-07-06 05:40:00,47.8,44.1,29.78,West,266,1.0,2.0,87,0.00,,,0.00,VWS V14.01,2013-07-06 11:40:00,
2013-07-06 05:43:00,47.8,44.1,29.80,WSW,245,0.0,0.0,87,0.00,,,0.00,VWS V14.01,2013-07-06 11:43:00,
2013-07-06 05:45:00,47.8,43.8,29.78,West,263,1.0,1.0,86,0.00,,,0.00,VWS V14.01,2013-07-06 11:45:00,
2013-07-06 05:48:00,47.5,44.1,29.80,West,259,0.0,0.0,88,0.00,,,0.00,VWS V14.01,2013-07-06 11:48:00,
2013-07-06 05:50:00,47.3,43.6,29.78,West,263,0.0,1.0,87,0.00,,,0.00,VWS V14.01,2013-07-06 11:50:00,
2013-07-06 05:53:00,47.2,43.8,29.80,West,259,0.0,0.0,88,0.00,,,0.00,VWS V14.01,2013-07-06 11:53:00,
2013-07-06 05:55:00,47.3,44.2,29.78,NNE,17,1.0,2.0,89,0.00,,,0.00,VWS V14.01,2013-07-06 11:55:00,
2013-07-06 05:58:00,47.0,43.6,29.80,West,259,0.0,0.0,88,0.00,,,0.00,VWS V14.01,2013-07-06 11:58:00,
2013-07-06 06:00:00,47.6,44.2,29.79,NNE,17,0.0,1.0,88,0.00,,,0.00,VWS V14.01,2013-07-06 12:00:00,
2013-07-06 06:03:00,46.8,43.7,29.80,West,259,0.0,0.0,89,0.00,,,0.00,VWS V14.01,2013-07-06 12:03:00,
2013-07-06 06:05:00,48.0,45.2,29.79,NNE,17,2.0,2.0,90,0.00,,,0.00,VWS V14.01,2013-07-06 12:05:00,
2013-07-06 06:08:00,46.8,43.7,29.80,WSW,257,0.0,0.0,89,0.00,,,0.00,VWS V14.01,2013-07-06 12:08:00,
2013-07-06 06:10:00,48.6,45.8,29.79,NNW,334,0.0,2.0,90,0.00,,,0.00,VWS V14.01,2013-07-06 12:10:00,
2013-07-06 06:13:00,46.7,43.6,29.80,WSW,258,0.0,0.0,89,0.00,,,0.00,VWS V14.01,2013-07-06 12:13:00,
2013-07-06 06:15:00,48.7,45.6,29.79,NW,321,1.0,1.0,89,0.00,,,0.00,VWS V14.01,2013-07-06 12:15:00,
2013-07-06 06:18:00,46.7,43.6,29.80,West,259,0.0,0.0,89,0.00,,,0.00,VWS V14.01,2013-07-06 12:18:00,
2013-07-06 06:20:00,49.2,46.1,29.79,WNW,291,0.0,1.0,89,0.00,,,0.00,VWS V14.01,2013-07-06 12:20:00,
2013-07-06 06:23:00,47.2,44.1,29.80,West,259,0.0,0.0,89,0.00,,,0.00,VWS V14.01,2013-07-06 12:23:00,
2013-07-06 06:25:00,49.5,45.8,29.79,WNW,291,0.0,0.0,87,0.00,,,0.00,VWS V14.01,2013-07-06 12:25:00,
2013-07-06 06:28:00,47.8,44.7,29.81,WSW,257,0.0,0.0,89,0.00,,,0.00,VWS V14.01,2013-07-06 12:28:00,
2013-07-06 06:30:00,49.4,46.0,29.79,WNW,289,0.0,0.0,88,0.00,,,0.00,VWS V14.01,2013-07-06 12:30:00,
2013-07-06 06:33:00,48.5,44.8,29.81,WSW,257,0.0,0.0,87,0.00,,,0.00,VWS V14.01,2013-07-06 12:33:00,
2013-07-06 06:35:00,48.9,44.9,29.79,West,270,1.0,2.0,86,0.00,,,0.00,VWS V14.01,2013-07-06 12:35:00,
2013-07-06 06:38:00,49.0,45.0,29.81,West,264,0.0,0.0,86,0.00,,,0.00,VWS V14.01,2013-07-06 12:38:00,
2013-07-06 06:40:00,48.0,44.3,29.79,WSW,245,0.0,2.0,87,0.00,,,0.00,VWS V14.01,2013-07-06 12:40:00,
2013-07-06 06:43:00,49.2,45.5,29.81,West,259,0.0,0.0,87,0.00,,,0.00,VWS V14.01,2013-07-06 12:43:00,
2013-07-06 06:45:00,47.6,43.9,29.80,West,259,0.0,0.0,87,0.00,,,0.00,VWS V14.01,2013-07-06 12:45:00,
2013-07-06 06:48:00,49.5,45.5,29.81,West,262,0.0,0.0,86,0.00,,,0.00,VWS V14.01,2013-07-06 12:48:00,
2013-07-06 06:50:00,47.3,43.9,29.80,WSW,258,0.0,0.0,88,0.00,,,0.00,VWS V14.01,2013-07-06 12:50:00,
2013-07-06 06:53:00,50.3,46.6,29.81,West,261,0.0,0.0,87,0.00,,,0.00,VWS V14.01,2013-07-06 12:53:00,
2013-07-06 06:55:00,47.1,44.0,29.80,West,259,0.0,0.0,89,0.00,,,0.00,VWS V14.01,2013-07-06 12:55:00,
2013-07-06 06:58:00,51.6,47.9,29.81,West,261,0.0,0.0,87,0.00,,,0.00,VWS V14.01,2013-07-06 12:58:00,
2013-07-06 07:00:00,46.9,43.8,29.80,West,259,0.0,0.0,89,0.00,,,0.00,VWS V14.01,2013-07-06 13:00:00,
2013-07-06 07:03:00,53.7,49.0,29.81,West,262,0.0,0.0,84,0.00,,,0.00,VWS V14.01,2013-07-06 13:03:00,
2013-07-06 07:05:00,46.8,43.7,29.80,WSW,257,0.0,0.0,89,0.00,,,0.00,VWS V14.01,2013-07-06 13:05:00,
2013-07-06 07:08:00,55.8,49.4,29.81,West,262,0.0,0.0,79,0.00,,,0.00,VWS V14.01,2013-07-06 13:08:00,
2013-07-06 07:10:00,46.7,43.6,29.80,WSW,257,0.0,0.0,89,0.00,,,0.00,VWS V14.01,2013-07-06 13:10:00,
2013-07-06 07:13:00,57.1,49.3,29.81,West,262,0.0,0.0,75,0.00,,,0.00,VWS V14.01,2013-07-06 13:13:00,
2013-07-06 07:15:00,46.7,43.6,29.80,West,259,0.0,0.0,89,0.00,,,0.00,VWS V14.01,2013-07-06 13:15:00,
2013-07-06 07:18:00,58.0,50.1,29.81,West,262,0.0,0.0,75,0.00,,,0.00,VWS V14.01,2013-07-06 13:18:00,
2013-07-06 07:20:00,46.9,43.8,29.80,WSW,257,0.0,0.0,89,0.00,,,0.00,VWS V14.01,2013-07-06 13:20:00,
2013-07-06 07:23:00,58.7,49.3,29.81,NW,319,0.0,0.0,71,0.00,,,0.00,VWS V14.01,2013-07-06 13:23:00,
2013-07-06 07:25:00,47.5,44.4,29.81,WSW,257,0.0,0.0,89,0.00,,,0.00,VWS V14.01,2013-07-06 13:25:00,
2013-07-06 07:28:00,57.3,48.7,29.82,NW,314,2.0,3.0,73,0.00,,,0.00,VWS V14.01,2013-07-06 13:28:00,
2013-07-06 07:30:00,48.2,44.8,29.81,WSW,257,0.0,0.0,88,0.00,,,0.00,VWS V14.01,2013-07-06 13:30:00,
2013-07-06 07:33:00,56.6,48.4,29.82,NW,325,2.0,3.0,74,0.00,,,0.00,VWS V14.01,2013-07-06 13:33:00,
2013-07-06 07:35:00,48.8,45.1,29.81,West,266,0.0,0.0,87,0.00,,,0.00,VWS V14.01,2013-07-06 13:35:00,
2013-07-06 07:38:00,56.7,48.5,29.82,NNW,332,2.0,3.0,74,0.00,,,0.00,VWS V14.01,2013-07-06 13:38:00,
2013-07-06 07:40:00,49.1,45.1,29.81,WSW,252,0.0,0.0,86,0.00,,,0.00,VWS V14.01,2013-07-06 13:40:00,
2013-07-06 07:43:00,56.8,48.6,29.82,NW,321,2.0,3.0,74,0.00,,,0.00,VWS V14.01,2013-07-06 13:43:00,
2013-07-06 07:45:00,49.3,45.6,29.81,West,262,0.0,0.0,87,0.00,,,0.00,VWS V14.01,2013-07-06 13:45:00,
2013-07-06 07:48:00,57.1,49.3,29.82,North,8,1.0,2.0,75,0.00,,,0.00,VWS V14.01,2013-07-06 13:48:00,
2013-07-06 07:50:00,49.9,46.2,29.81,West,262,0.0,0.0,87,0.00,,,0.00,VWS V14.01,2013-07-06 13:50:00,
2013-07-06 07:53:00,57.5,48.9,29.82,NNW,328,2.0,2.0,73,0.00,,,0.00,VWS V14.01,2013-07-06 13:53:00,
2013-07-06 07:55:00,50.8,47.1,29.81,West,262,0.0,0.0,87,0.00,,,0.00,VWS V14.01,2013-07-06 13:55:00,
2013-07-06 07:58:00,57.9,48.9,29.82,NW,305,1.0,2.0,72,0.00,,,0.00,VWS V14.01,2013-07-06 13:58:00,
2013-07-06 08:00:00,52.9,48.8,29.81,West,262,0.0,0.0,86,0.00,,,0.00,VWS V14.01,2013-07-06 14:00:00,
2013-07-06 08:03:00,58.4,49.0,29.82,NW,321,2.0,2.0,71,0.00,,,0.00,VWS V14.01,2013-07-06 14:03:00,
2013-07-06 08:05:00,55.1,49.4,29.81,West,262,0.0,0.0,81,0.00,,,0.00,VWS V14.01,2013-07-06 14:05:00,
2013-07-06 08:08:00,58.6,49.6,29.82,NNW,348,1.0,3.0,72,0.00,,,0.00,VWS V14.01,2013-07-06 14:08:00,
2013-07-06 08:10:00,56.6,49.8,29.81,West,262,0.0,0.0,78,0.00,,,0.00,VWS V14.01,2013-07-06 14:10:00,
2013-07-06 08:13:00,58.8,49.4,29.82,WNW,293,0.0,3.0,71,0.00,,,0.00,VWS V14.01,2013-07-06 14:13:00,
2013-07-06 08:15:00,57.6,49.7,29.81,West,262,0.0,0.0,75,0.00,,,0.00,VWS V14.01,2013-07-06 14:15:00,
2013-07-06 08:18:00,59.2,49.4,29.82,North,354,2.0,3.0,70,0.00,,,0.00,VWS V14.01,2013-07-06 14:18:00,
2013-07-06 08:20:00,58.6,50.3,29.82,West,261,0.0,0.0,74,0.00,,,0.00,VWS V14.01,2013-07-06 14:20:00,
2013-07-06 08:23:00,59.5,50.1,29.82,North,11,2.0,4.0,71,0.00,,,0.00,VWS V14.01,2013-07-06 14:23:00,
2013-07-06 08:25:00,57.9,48.6,29.82,NW,321,1.0,2.0,71,0.00,,,0.00,VWS V14.01,2013-07-06 14:25:00,
2013-07-06 08:28:00,59.9,50.5,29.82,North,349,4.0,6.0,71,0.00,,,0.00,VWS V14.01,2013-07-06 14:28:00,
2013-07-06 08:30:00,56.9,48.7,29.81,NW,318,2.0,3.0,74,0.00,,,0.00,VWS V14.01,2013-07-06 14:30:00,
2013-07-06 08:33:00,59.8,49.6,29.82,North,6,2.0,5.0,69,0.00,,,0.00,VWS V14.01,2013-07-06 14:33:00,
2013-07-06 08:35:00,56.6,48.4,29.82,WNW,300,1.0,3.0,74,0.00,,,0.00,VWS V14.01,2013-07-06 14:35:00,
2013-07-06 08:38:00,60.0,50.2,29.82,North,349,3.0,5.0,70,0.00,,,0.00,VWS V14.01,2013-07-06 14:38:00,
2013-07-06 08:40:00,56.8,48.2,29.82,NW,326,3.0,4.0,73,0.00,,,0.00,VWS V14.01,2013-07-06 14:40:00,
2013-07-06 08:43:00,60.2,49.6,29.82,North,349,5.0,5.0,68,0.00,,,0.00,VWS V14.01,2013-07-06 14:43:00,
2013-07-06 08:45:00,56.9,48.7,29.82,NW,314,1.0,4.0,74,0.00,,,0.00,VWS V14.01,2013-07-06 14:45:00,
2013-07-06 08:48:00,60.4,49.8,29.82,NW,324,4.0,5.0,68,0.00,,,0.00,VWS V14.01,2013-07-06 14:48:00,
2013-07-06 08:50:00,57.4,48.8,29.82,NW,316,2.0,3.0,73,0.00,,,0.00,VWS V14.01,2013-07-06 14:50:00,
2013-07-06 08:53:00,60.4,49.8,29.82,NW,314,2.0,4.0,68,0.00,,,0.00,VWS V14.01,2013-07-06 14:53:00,
2013-07-06 08:55:00,57.7,49.5,29.82,WNW,300,1.0,2.0,74,0.00,,,0.00,VWS V14.01,2013-07-06 14:55:00,
2013-07-06 08:58:00,60.6,50.4,29.82,NW,304,3.0,4.0,69,0.00,,,0.00,VWS V14.01,2013-07-06 14:58:00,
2013-07-06 09:00:00,58.3,49.7,29.82,NW,318,2.0,3.0,73,0.00,,,0.00,VWS V14.01,2013-07-06 15:00:00,
2013-07-06 09:03:00,61.2,50.6,29.82,NNW,348,3.0,4.0,68,0.00,,,0.00,VWS V14.01,2013-07-06 15:03:00,
2013-07-06 09:05:00,58.5,49.5,29.82,NW,304,2.0,4.0,72,0.00,,,0.00,VWS V14.01,2013-07-06 15:05:00,
2013-07-06 09:08:00,61.5,50.8,29.82,NW,314,2.0,4.0,68,0.00,,,0.00,VWS V14.01,2013-07-06 15:08:00,
2013-07-06 09:10:00,58.8,49.4,29.82,NW,304,2.0,3.0,71,0.00,,,0.00,VWS V14.01,2013-07-06 15:10:00,
2013-07-06 09:13:00,61.8,50.7,29.82,NNE,22,4.0,6.0,67,0.00,,,0.00,VWS V14.01,2013-07-06 15:13:00,
2013-07-06 09:15:00,59.1,50.5,29.82,NNW,345,1.0,3.0,73,0.00,,,0.00,VWS V14.01,2013-07-06 15:15:00,
2013-07-06 09:18:00,62.1,50.2,29.82,NNE,27,5.0,6.0,65,0.00,,,0.00,VWS V14.01,2013-07-06 15:18:00,
2013-07-06 09:20:00,59.3,49.5,29.82,NNW,329,3.0,4.0,70,0.00,,,0.00,VWS V14.01,2013-07-06 15:20:00,
2013-07-06 09:23:00,62.1,51.4,29.82,NNE,23,2.0,3.0,68,0.00,,,0.00,VWS V14.01,2013-07-06 15:23:00,
2013-07-06 09:25:00,59.8,50.4,29.82,North,6,3.0,4.0,71,0.00,,,0.00,VWS V14.01,2013-07-06 15:25:00,
2013-07-06 09:28:00,62.2,50.7,29.82,NE,42,2.0,6.0,66,0.00,,,0.00,VWS V14.01,2013-07-06 15:28:00,
2013-07-06 09:30:00,59.9,49.7,29.82,North,5,4.0,6.0,69,0.00,,,0.00,VWS V14.01,2013-07-06 15:30:00,
2013-07-06 09:33:00,62.4,51.3,29.82,ENE,68,2.0,5.0,67,0.00,,,0.00,VWS V14.01,2013-07-06 15:33:00,
2013-07-06 09:35:00,59.9,49.7,29.82,NW,312,4.0,5.0,69,0.00,,,0.00,VWS V14.01,2013-07-06 15:35:00,
2013-07-06 09:38:00,63.1,50.7,29.82,North,5,2.0,4.0,64,0.00,,,0.00,VWS V14.01,2013-07-06 15:38:00,
2013-07-06 09:40:00,60.2,49.6,29.82,NW,326,2.0,5.0,68,0.00,,,0.00,VWS V14.01,2013-07-06 15:40:00,
2013-07-06 09:43:00,63.2,51.2,29.82,NE,53,2.0,5.0,65,0.00,,,0.00,VWS V14.01,2013-07-06 15:43:00,
2013-07-06 09:45:00,60.3,50.1,29.82,North,354,5.0,5.0,69,0.00,,,0.00,VWS V14.01,2013-07-06 15:45:00,
2013-07-06 09:48:00,63.2,51.7,29.82,North,352,3.0,4.0,66,0.00,,,0.00,VWS V14.01,2013-07-06 15:48:00,
2013-07-06 09:50:00,60.3,50.1,29.82,NNW,328,3.0,5.0,69,0.00,,,0.00,VWS V14.01,2013-07-06 15:50:00,
2013-07-06 09:53:00,63.6,52.0,29.82,NE,41,2.0,4.0,66,0.00,,,0.00,VWS V14.01,2013-07-06 15:53:00,
2013-07-06 09:55:00,60.6,50.4,29.82,NW,321,4.0,6.0,69,0.00,,,0.00,VWS V14.01,2013-07-06 15:55:00,
2013-07-06 09:58:00,64.0,52.4,29.81,NE,34,3.0,4.0,66,0.00,,,0.00,VWS V14.01,2013-07-06 15:58:00,
2013-07-06 10:00:00,60.9,51.1,29.82,NW,314,2.0,5.0,70,0.00,,,0.00,VWS V14.01,2013-07-06 16:00:00,
2013-07-06 10:03:00,64.1,52.1,29.81,NW,314,0.0,3.0,65,0.00,,,0.00,VWS V14.01,2013-07-06 16:03:00,
2013-07-06 10:05:00,61.3,51.1,29.82,North,358,3.0,4.0,69,0.00,,,0.00,VWS V14.01,2013-07-06 16:05:00,
2013-07-06 10:08:00,64.9,53.7,29.81,NE,41,3.0,3.0,67,0.00,,,0.00,VWS V14.01,2013-07-06 16:08:00,
2013-07-06 10:10:00,61.6,50.5,29.82,NE,51,3.0,5.0,67,0.00,,,0.00,VWS V14.01,2013-07-06 16:10:00,
2013-07-06 10:13:00,64.9,52.0,29.81,NE,47,2.0,5.0,63,0.00,,,0.00,VWS V14.01,2013-07-06 16:13:00,
2013-07-06 10:15:00,62.0,51.3,29.82,NNE,28,4.0,6.0,68,0.00,,,0.00,VWS V14.01,2013-07-06 16:15:00,
2013-07-06 10:18:00,65.5,51.3,29.81,ESE,116,2.0,4.0,60,0.00,,,0.00,VWS V14.01,2013-07-06 16:18:00,
2013-07-06 10:20:00,62.0,50.5,29.82,ENE,72,3.0,6.0,66,0.00,,,0.00,VWS V14.01,2013-07-06 16:20:00,
2013-07-06 10:23:00,65.7,51.0,29.81,East,80,2.0,4.0,59,0.00,,,0.00,VWS V14.01,2013-07-06 16:23:00,
2013-07-06 10:25:00,62.2,51.1,29.82,North,356,6.0,7.0,67,0.00,,,0.00,VWS V14.01,2013-07-06 16:25:00,
2013-07-06 10:30:00,66.0,50.3,29.81,NW,319,0.0,2.0,57,0.00,,,0.00,VWS V14.01,2013-07-06 16:30:00,
2013-07-06 10:35:00,66.7,52.4,29.81,SSE,166,3.0,3.0,60,0.00,,,0.00,VWS V14.01,2013-07-06 16:35:00,
2013-07-06 10:40:00,66.9,52.6,29.81,NE,46,2.0,5.0,60,0.00,,,0.00,VWS V14.01,2013-07-06 16:40:00,
2013-07-06 10:45:00,67.7,53.3,29.81,SE,146,0.0,4.0,60,0.00,,,0.00,VWS V14.01,2013-07-06 16:45:00,
2013-07-06 10:50:00,68.0,52.7,29.81,SE,138,2.0,3.0,58,0.00,,,0.00,VWS V14.01,2013-07-06 16:50:00,
2013-07-06 10:55:00,67.9,51.2,29.81,SSE,152,1.0,1.0,55,0.00,,,0.00,VWS V14.01,2013-07-06 16:55:00,
2013-07-06 11:00:00,64.1,52.1,29.81,NNE,27,2.0,4.0,65,0.00,,,0.00,VWS V14.01,2013-07-06 17:00:00,
2013-07-06 11:01:00,68.2,50.9,29.81,ESE,114,1.0,2.0,54,0.00,,,0.00,VWS V14.01,2013-07-06 17:01:00,
2013-07-06 11:05:00,64.4,53.2,29.81,ENE,70,0.0,3.0,67,0.00,,,0.00,VWS V14.01,2013-07-06 17:05:00,
2013-07-06 11:06:00,68.3,51.5,29.81,SSE,164,1.0,2.0,55,0.00,,,0.00,VWS V14.01,2013-07-06 17:06:00,
2013-07-06 11:10:00,65.0,52.1,29.81,NE,46,0.0,4.0,63,0.00,,,0.00,VWS V14.01,2013-07-06 17:10:00,
2013-07-06 11:12:00,68.8,52.0,29.81,SW,229,1.0,3.0,55,0.00,,,0.00,VWS V14.01,2013-07-06 17:12:00,
2013-07-06 11:15:00,65.1,52.6,29.81,NE,55,1.0,5.0,64,0.00,,,0.00,VWS V14.01,2013-07-06 17:15:00,
2013-07-06 11:17:00,69.2,51.4,29.81,SE,141,3.0,4.0,53,0.00,,,0.00,VWS V14.01,2013-07-06 17:17:00,
2013-07-06 11:20:00,65.6,51.4,29.81,NE,39,4.0,4.0,60,0.00,,,0.00,VWS V14.01,2013-07-06 17:20:00,
2013-07-06 11:22:00,69.5,52.2,29.80,SSW,194,1.0,3.0,54,0.00,,,0.00,VWS V14.01,2013-07-06 17:22:00,
2013-07-06 11:25:00,65.7,51.0,29.81,ENE,69,2.0,4.0,59,0.00,,,0.00,VWS V14.01,2013-07-06 17:25:00,
2013-07-06 11:27:00,70.1,52.7,29.80,ESE,115,3.0,4.0,54,0.00,,,0.00,VWS V14.01,2013-07-06 17:27:00,
2013-07-06 11:30:00,66.1,51.4,29.81,SE,143,2.0,2.0,59,0.00,,,0.00,VWS V14.01,2013-07-06 17:30:00,
2013-07-06 11:32:00,70.6,53.2,29.80,SE,133,4.0,8.0,54,0.00,,,0.00,VWS V14.01,2013-07-06 17:32:00,
2013-07-06 11:35:00,66.7,51.9,29.81,East,101,4.0,5.0,59,0.00,,,0.00,VWS V14.01,2013-07-06 17:35:00,
2013-07-06 11:37:00,70.4,52.0,29.80,ESE,118,1.0,6.0,52,0.00,,,0.00,VWS V14.01,2013-07-06 17:37:00,
2013-07-06 11:40:00,66.9,52.1,29.81,NE,39,2.0,5.0,59,0.00,,,0.00,VWS V14.01,2013-07-06 17:40:00,
2013-07-06 11:42:00,70.5,52.6,29.80,NNE,27,1.0,3.0,53,0.00,,,0.00,VWS V14.01,2013-07-06 17:42:00,
2013-07-06 11:45:00,67.7,53.3,29.81,SE,146,0.0,4.0,60,0.00,,,0.00,VWS V14.01,2013-07-06 17:45:00,
2013-07-06 11:47:00,71.0,52.0,29.80,East,86,3.0,4.0,51,0.00,,,0.00,VWS V14.01,2013-07-06 17:47:00,
2013-07-06 11:50:00,68.0,52.7,29.81,SE,141,3.0,6.0,58,0.00,,,0.00,VWS V14.01,2013-07-06 17:50:00,
2013-07-06 11:52:00,71.6,51.5,29.80,East,91,4.0,7.0,49,0.00,,,0.00,VWS V14.01,2013-07-06 17:52:00,
2013-07-06 11:55:00,67.9,51.2,29.81,SSE,162,1.0,5.0,55,0.00,,,0.00,VWS V14.01,2013-07-06 17:55:00,
2013-07-06 11:57:00,71.7,50.4,29.80,SSE,160,2.0,6.0,47,0.00,,,0.00,VWS V14.01,2013-07-06 17:57:00,
2013-07-06 12:00:00,68.2,50.9,29.81,ESE,114,2.0,5.0,54,0.00,,,0.00,VWS V14.01,2013-07-06 18:00:00,
2013-07-06 12:03:00,71.9,52.3,29.80,ESE,113,5.0,6.0,50,0.00,,,0.00,VWS V14.01,2013-07-06 18:03:00,
2013-07-06 12:05:00,68.3,51.5,29.81,SW,226,1.0,5.0,55,0.00,,,0.00,VWS V14.01,2013-07-06 18:05:00,
2013-07-06 12:08:00,72.1,50.8,29.80,East,91,5.0,7.0,47,0.00,,,0.00,VWS V14.01,2013-07-06 18:08:00,
2013-07-06 12:10:00,68.8,51.5,29.81,NE,55,0.0,5.0,54,0.00,,,0.00,VWS V14.01,2013-07-06 18:10:00,
2013-07-06 12:13:00,72.5,52.3,29.80,ESE,110,3.0,5.0,49,0.00,,,0.00,VWS V14.01,2013-07-06 18:13:00,
2013-07-06 12:15:00,69.1,51.8,29.81,SSE,162,2.0,4.0,54,0.00,,,0.00,VWS V14.01,2013-07-06 18:15:00,
2013-07-06 12:19:00,73.0,51.6,29.80,South,183,5.0,6.0,47,0.00,,,0.00,VWS V14.01,2013-07-06 18:19:00,
2013-07-06 12:20:00,69.3,53.0,29.80,SSW,207,3.0,4.0,56,0.00,,,0.00,VWS V14.01,2013-07-06 18:20:00,
2013-07-06 12:24:00,73.2,52.4,29.79,South,189,3.0,7.0,48,0.00,,,0.00,VWS V14.01,2013-07-06 18:24:00,
2013-07-06 12:25:00,69.9,52.0,29.80,SSW,203,1.0,4.0,53,0.00,,,0.00,VWS V14.01,2013-07-06 18:25:00,
2013-07-06 12:29:00,73.5,50.9,29.79,SE,125,5.0,8.0,45,0.00,,,0.00,VWS V14.01,2013-07-06 18:29:00,
2013-07-06 12:30:00,70.3,51.3,29.80,SSW,204,1.0,4.0,51,0.00,,,0.00,VWS V14.01,2013-07-06 18:30:00,
2013-07-06 12:35:00,73.4,50.8,29.79,SSE,152,3.0,6.0,45,0.00,,,0.00,VWS V14.01,2013-07-06 18:35:00,
2013-07-06 12:40:00,73.0,51.0,29.79,SSE,168,3.0,9.0,46,0.00,,,0.00,VWS V14.01,2013-07-06 18:40:00,
2013-07-06 12:45:00,73.2,50.0,29.78,East,96,2.0,8.0,44,0.00,,,0.00,VWS V14.01,2013-07-06 18:45:00,
2013-07-06 12:50:00,72.9,51.5,29.78,East,84,2.0,7.0,47,0.00,,,0.00,VWS V14.01,2013-07-06 18:50:00,
2013-07-06 12:55:00,73.7,52.8,29.78,ESE,116,5.0,8.0,48,0.00,,,0.00,VWS V14.01,2013-07-06 18:55:00,
2013-07-06 13:00:00,71.6,52.0,29.80,SSE,156,1.0,6.0,50,0.00,,,0.00,VWS V14.01,2013-07-06 19:00:00,
2013-07-06 13:01:00,73.6,51.6,29.78,ESE,107,7.0,7.0,46,0.00,,,0.00,VWS V14.01,2013-07-06 19:01:00,
2013-07-06 13:05:00,72.1,51.3,29.80,East,93,4.0,9.0,48,0.00,,,0.00,VWS V14.01,2013-07-06 19:05:00,
2013-07-06 13:06:00,73.8,49.3,29.78,SE,143,5.0,6.0,42,0.00,,,0.00,VWS V14.01,2013-07-06 19:06:00,
2013-07-06 13:10:00,72.2,50.9,29.80,ENE,71,4.0,7.0,47,0.00,,,0.00,VWS V14.01,2013-07-06 19:10:00,
2013-07-06 13:11:00,73.7,50.5,29.78,ESE,120,6.0,8.0,44,0.00,,,0.00,VWS V14.01,2013-07-06 19:11:00,
2013-07-06 13:15:00,72.8,52.5,29.80,SW,220,1.0,5.0,49,0.00,,,0.00,VWS V14.01,2013-07-06 19:15:00,
2013-07-06 13:17:00,73.5,49.7,29.78,SE,144,2.0,7.0,43,0.00,,,0.00,VWS V14.01,2013-07-06 19:17:00,
2013-07-06 13:20:00,73.1,50.5,29.79,SW,231,2.0,6.0,45,0.00,,,0.00,VWS V14.01,2013-07-06 19:20:00,
2013-07-06 13:22:00,73.8,49.9,29.78,ESE,122,8.0,11.0,43,0.00,,,0.00,VWS V14.01,2013-07-06 19:22:00,
2013-07-06 13:25:00,73.3,50.7,29.79,SSW,197,5.0,7.0,45,0.00,,,0.00,VWS V14.01,2013-07-06 19:25:00,
2013-07-06 13:27:00,73.9,50.6,29.78,SE,134,5.0,7.0,44,0.00,,,0.00,VWS V14.01,2013-07-06 19:27:00,
2013-07-06 13:30:00,73.4,51.4,29.79,SE,141,3.0,8.0,46,0.00,,,0.00,VWS V14.01,2013-07-06 19:30:00,
2013-07-06 13:33:00,74.3,52.2,29.78,ESE,116,6.0,11.0,46,0.00,,,0.00,VWS V14.01,2013-07-06 19:33:00,
2013-07-06 13:35:00,73.4,50.2,29.79,SE,138,4.0,6.0,44,0.00,,,0.00,VWS V14.01,2013-07-06 19:35:00,
2013-07-06 13:38:00,74.4,48.5,29.77,SE,136,6.0,9.0,40,0.00,,,0.00,VWS V14.01,2013-07-06 19:38:00,
2013-07-06 13:40:00,73.1,51.1,29.79,SSE,154,5.0,9.0,46,0.00,,,0.00,VWS V14.01,2013-07-06 19:40:00,
2013-07-06 13:43:00,74.0,49.5,29.77,ESE,111,9.0,12.0,42,0.00,,,0.00,VWS V14.01,2013-07-06 19:43:00,
2013-07-06 13:45:00,73.1,49.3,29.78,ESE,111,5.0,8.0,43,0.00,,,0.00,VWS V14.01,2013-07-06 19:45:00,
2013-07-06 13:48:00,74.3,51.0,29.77,SE,146,5.0,9.0,44,0.00,,,0.00,VWS V14.01,2013-07-06 19:48:00,
2013-07-06 13:50:00,72.9,51.5,29.78,East,93,4.0,7.0,47,0.00,,,0.00,VWS V14.01,2013-07-06 19:50:00,
2013-07-06 13:53:00,74.1,51.4,29.77,ESE,108,4.0,7.0,45,0.00,,,0.00,VWS V14.01,2013-07-06 19:53:00,
2013-07-06 13:55:00,73.7,52.8,29.78,ESE,116,5.0,8.0,48,0.00,,,0.00,VWS V14.01,2013-07-06 19:55:00,
2013-07-06 13:58:00,74.8,52.1,29.77,ESE,115,6.0,13.0,45,0.00,,,0.00,VWS V14.01,2013-07-06 19:58:00,
2013-07-06 14:00:00,73.6,51.6,29.78,ESE,108,6.0,8.0,46,0.00,,,0.00,VWS V14.01,2013-07-06 20:00:00,
2013-07-06 14:04:00,75.1,51.1,29.77,ESE,110,7.0,9.0,43,0.00,,,0.00,VWS V14.01,2013-07-06 20:04:00,
2013-07-06 14:05:00,73.8,49.3,29.78,ESE,111,5.0,9.0,42,0.00,,,0.00,VWS V14.01,2013-07-06 20:05:00,
2013-07-06 14:09:00,74.9,50.3,29.77,ESE,109,3.0,10.0,42,0.00,,,0.00,VWS V14.01,2013-07-06 20:09:00,
2013-07-06 14:10:00,73.7,48.6,29.78,SE,134,5.0,10.0,41,0.00,,,0.00,VWS V14.01,2013-07-06 20:10:00,
2013-07-06 14:14:00,75.0,52.2,29.76,SE,146,5.0,6.0,45,0.00,,,0.00,VWS V14.01,2013-07-06 20:14:00,
2013-07-06 14:15:00,73.5,48.4,29.78,SE,124,3.0,9.0,41,0.00,,,0.00,VWS V14.01,2013-07-06 20:15:00,
2013-07-06 14:20:00,74.5,51.2,29.76,SE,146,3.0,8.0,44,0.00,,,0.00,VWS V14.01,2013-07-06 20:20:00,
2013-07-06 14:25:00,74.0,50.7,29.76,SE,136,5.0,7.0,44,0.00,,,0.00,VWS V14.01,2013-07-06 20:25:00,
2013-07-06 14:30:00,74.9,52.2,29.76,ESE,117,4.0,8.0,45,0.00,,,0.00,VWS V14.01,2013-07-06 20:30:00,
2013-07-06 14:35:00,75.2,51.8,29.76,East,87,5.0,9.0,44,0.00,,,0.00,VWS V14.01,2013-07-06 20:35:00,
2013-07-06 14:40:00,74.9,50.3,29.76,ESE,108,6.0,10.0,42,0.00,,,0.00,VWS V14.01,2013-07-06 20:40:00,
2013-07-06 14:45:00,74.5,49.9,29.76,SSE,155,2.0,8.0,42,0.00,,,0.00,VWS V14.01,2013-07-06 20:45:00,
2013-07-06 14:50:00,73.9,51.8,29.76,East,98,4.0,4.0,46,0.00,,,0.00,VWS V14.01,2013-07-06 20:50:00,
2013-07-06 14:55:00,74.4,52.3,29.76,SE,142,4.0,5.0,46,0.00,,,0.00,VWS V14.01,2013-07-06 20:55:00,
2013-07-06 15:00:00,75.3,50.7,29.76,SE,136,7.0,8.0,42,0.00,,,0.00,VWS V14.01,2013-07-06 21:00:00,
2013-07-06 15:05:00,75.9,50.5,29.75,ESE,116,5.0,6.0,41,0.00,,,0.00,VWS V14.01,2013-07-06 21:05:00,
2013-07-06 15:10:00,74.9,50.3,29.77,SSE,147,4.0,10.0,42,0.00,,,0.00,VWS V14.01,2013-07-06 21:10:00,
2013-07-06 15:11:00,75.8,51.1,29.75,SW,228,3.0,4.0,42,0.00,,,0.00,VWS V14.01,2013-07-06 21:11:00,
2013-07-06 15:15:00,75.1,52.3,29.76,ESE,105,6.0,8.0,45,0.00,,,0.00,VWS V14.01,2013-07-06 21:15:00,
2013-07-06 15:16:00,76.3,49.5,29.75,SSE,147,4.0,5.0,39,0.00,,,0.00,VWS V14.01,2013-07-06 21:16:00,
2013-07-06 15:20:00,74.4,51.1,29.76,South,173,3.0,8.0,44,0.00,,,0.00,VWS V14.01,2013-07-06 21:20:00,
2013-07-06 15:22:00,76.6,49.1,29.75,SSE,149,3.0,7.0,38,0.00,,,0.00,VWS V14.01,2013-07-06 21:22:00,
2013-07-06 15:25:00,74.0,50.7,29.76,East,82,5.0,7.0,44,0.00,,,0.00,VWS V14.01,2013-07-06 21:25:00,
2013-07-06 15:27:00,77.5,49.2,29.75,East,96,4.0,5.0,37,0.00,,,0.00,VWS V14.01,2013-07-06 21:27:00,
2013-07-06 15:30:00,75.0,52.8,29.76,ESE,115,7.0,8.0,46,0.00,,,0.00,VWS V14.01,2013-07-06 21:30:00,
2013-07-06 15:32:00,77.6,49.3,29.75,SSE,149,4.0,4.0,37,0.00,,,0.00,VWS V14.01,2013-07-06 21:32:00,
2013-07-06 15:35:00,75.2,51.2,29.76,SE,129,5.0,9.0,43,0.00,,,0.00,VWS V14.01,2013-07-06 21:35:00,
2013-07-06 15:38:00,77.0,48.8,29.75,ESE,109,5.0,7.0,37,0.00,,,0.00,VWS V14.01,2013-07-06 21:38:00,
2013-07-06 15:40:00,74.9,49.6,29.76,ESE,118,5.0,10.0,41,0.00,,,0.00,VWS V14.01,2013-07-06 21:40:00,
2013-07-06 15:43:00,77.2,49.7,29.75,SE,145,3.0,6.0,38,0.00,,,0.00,VWS V14.01,2013-07-06 21:43:00,
2013-07-06 15:45:00,74.4,49.8,29.76,SE,143,2.0,8.0,42,0.00,,,0.00,VWS V14.01,2013-07-06 21:45:00,
2013-07-06 15:48:00,76.7,49.2,29.75,SSE,165,8.0,8.0,38,0.00,,,0.00,VWS V14.01,2013-07-06 21:48:00,
2013-07-06 15:50:00,73.9,51.8,29.76,SSE,168,4.0,5.0,46,0.00,,,0.00,VWS V14.01,2013-07-06 21:50:00,
2013-07-06 15:54:00,76.6,51.8,29.74,SSE,148,6.0,9.0,42,0.00,,,0.00,VWS V14.01,2013-07-06 21:54:00,
2013-07-06 15:55:00,74.4,52.3,29.76,SSE,158,5.0,6.0,46,0.00,,,0.00,VWS V14.01,2013-07-06 21:55:00,
2013-07-06 15:59:00,77.4,46.1,29.74,SE,141,2.0,7.0,33,0.00,,,0.00,VWS V14.01,2013-07-06 21:59:00,
2013-07-06 16:00:00,75.3,50.7,29.76,SE,136,7.0,8.0,42,0.00,,,0.00,VWS V14.01,2013-07-06 22:00:00,
2013-07-06 16:05:00,78.1,50.5,29.74,ESE,108,2.0,6.0,38,0.00,,,0.00,VWS V14.01,2013-07-06 22:05:00,
2013-07-06 16:10:00,78.3,48.4,29.74,ESE,112,6.0,6.0,35,0.00,,,0.00,VWS V14.01,2013-07-06 22:10:00,
2013-07-06 16:15:00,77.9,45.7,29.74,SE,124,4.0,11.0,32,0.00,,,0.00,VWS V14.01,2013-07-06 22:15:00,
2013-07-06 16:20:00,78.2,46.8,29.74,ESE,115,3.0,8.0,33,0.00,,,0.00,VWS V14.01,2013-07-06 22:20:00,
2013-07-06 16:25:00,77.2,49.7,29.75,SW,231,4.0,9.0,38,0.00,,,0.00,VWS V14.01,2013-07-06 22:25:00,
2013-07-06 16:26:00,78.3,48.4,29.73,SW,233,3.0,4.0,35,0.00,,,0.00,VWS V14.01,2013-07-06 22:26:00,
2013-07-06 16:30:00,77.6,48.6,29.75,SE,125,2.0,6.0,36,0.00,,,0.00,VWS V14.01,2013-07-06 22:30:00,
2013-07-06 16:31:00,78.3,48.4,29.73,South,173,3.0,6.0,35,0.00,,,0.00,VWS V14.01,2013-07-06 22:31:00,
2013-07-06 16:35:00,77.4,48.4,29.75,SE,143,4.0,6.0,36,0.00,,,0.00,VWS V14.01,2013-07-06 22:35:00,
2013-07-06 16:36:00,78.2,46.0,29.73,SE,138,3.0,3.0,32,0.00,,,0.00,VWS V14.01,2013-07-06 22:36:00,
2013-07-06 16:40:00,77.0,49.5,29.75,SSE,156,3.0,8.0,38,0.00,,,0.00,VWS V14.01,2013-07-06 22:40:00,
2013-07-06 16:41:00,78.1,46.7,29.73,SE,146,2.0,6.0,33,0.00,,,0.00,VWS V14.01,2013-07-06 22:41:00,
2013-07-06 16:45:00,77.1,48.8,29.75,SSE,159,4.0,7.0,37,0.00,,,0.00,VWS V14.01,2013-07-06 22:45:00,
2013-07-06 16:47:00,78.3,47.7,29.73,East,100,2.0,6.0,34,0.00,,,0.00,VWS V14.01,2013-07-06 22:47:00,
2013-07-06 16:50:00,76.4,51.0,29.75,SE,146,3.0,8.0,41,0.00,,,0.00,VWS V14.01,2013-07-06 22:50:00,
2013-07-06 16:52:00,78.1,46.7,29.73,ESE,104,4.0,5.0,33,0.00,,,0.00,VWS V14.01,2013-07-06 22:52:00,
2013-07-06 16:55:00,76.9,48.7,29.74,SW,214,4.0,9.0,37,0.00,,,0.00,VWS V14.01,2013-07-06 22:55:00,
2013-07-06 16:57:00,77.5,47.0,29.73,SE,129,4.0,5.0,34,0.00,,,0.00,VWS V14.01,2013-07-06 22:57:00,
2013-07-06 17:00:00,77.5,47.0,29.74,SE,142,4.0,7.0,34,0.00,,,0.00,VWS V14.01,2013-07-06 23:00:00,
2013-07-06 17:02:00,77.6,47.0,29.73,SE,128,4.0,4.0,34,0.00,,,0.00,VWS V14.01,2013-07-06 23:02:00,
2013-07-06 17:05:00,78.2,51.2,29.74,ESE,108,4.0,6.0,39,0.00,,,0.00,VWS V14.01,2013-07-06 23:05:00,
2013-07-06 17:07:00,77.9,48.8,29.73,SE,131,2.0,6.0,36,0.00,,,0.00,VWS V14.01,2013-07-06 23:07:00,
2013-07-06 17:10:00,78.2,46.8,29.74,ESE,104,5.0,7.0,33,0.00,,,0.00,VWS V14.01,2013-07-06 23:10:00,
2013-07-06 17:12:00,78.3,46.9,29.73,East,96,3.0,6.0,33,0.00,,,0.00,VWS V14.01,2013-07-06 23:12:00,
2013-07-06 17:15:00,77.8,47.2,29.74,SE,128,3.0,11.0,34,0.00,,,0.00,VWS V14.01,2013-07-06 23:15:00,
2013-07-06 17:17:00,78.4,46.1,29.73,SE,139,4.0,5.0,32,0.00,,,0.00,VWS V14.01,2013-07-06 23:17:00,
2013-07-06 17:20:00,78.2,46.8,29.74,ESE,115,3.0,8.0,33,0.00,,,0.00,VWS V14.01,2013-07-06 23:20:00,
2013-07-06 17:23:00,77.8,48.7,29.72,SE,134,2.0,4.0,36,0.00,,,0.00,VWS V14.01,2013-07-06 23:23:00,
2013-07-06 17:25:00,78.2,48.3,29.73,SSE,147,2.0,7.0,35,0.00,,,0.00,VWS V14.01,2013-07-06 23:25:00,
2013-07-06 17:28:00,77.4,48.4,29.72,SE,135,2.0,5.0,36,0.00,,,0.00,VWS V14.01,2013-07-06 23:28:00,
2013-07-06 17:30:00,78.3,47.7,29.73,ESE,115,6.0,7.0,34,0.00,,,0.00,VWS V14.01,2013-07-06 23:30:00,
2013-07-06 17:33:00,77.7,49.4,29.72,ESE,122,3.0,4.0,37,0.00,,,0.00,VWS V14.01,2013-07-06 23:33:00,
2013-07-06 17:35:00,78.2,46.8,29.73,SE,146,3.0,6.0,33,0.00,,,0.00,VWS V14.01,2013-07-06 23:35:00,
2013-07-06 17:38:00,77.8,48.0,29.72,South,179,4.0,5.0,35,0.00,,,0.00,VWS V14.01,2013-07-06 23:38:00,
2013-07-06 17:40:00,78.2,49.1,29.73,SSE,153,4.0,7.0,36,0.00,,,0.00,VWS V14.01,2013-07-06 23:40:00,
2013-07-06 17:44:00,77.9,48.8,29.72,SE,125,2.0,4.0,36,0.00,,,0.00,VWS V14.01,2013-07-06 23:44:00,
2013-07-06 17:45:00,78.3,49.9,29.73,ESE,123,4.0,6.0,37,0.00,,,0.00,VWS V14.01,2013-07-06 23:45:00,
2013-07-06 17:49:00,78.2,46.0,29.72,SE,143,4.0,6.0,32,0.00,,,0.00,VWS V14.01,2013-07-06 23:49:00,
2013-07-06 17:50:00,78.3,49.9,29.73,East,92,3.0,6.0,37,0.00,,,0.00,VWS V14.01,2013-07-06 23:50:00,
2013-07-06 17:54:00,78.4,47.0,29.72,SSE,155,5.0,6.0,33,0.00,,,0.00,VWS V14.01,2013-07-06 23:54:00,
2013-07-06 17:55:00,77.7,47.9,29.73,ESE,120,5.0,5.0,35,0.00,,,0.00,VWS V14.01,2013-07-06 23:55:00,
2013-07-06 18:00:00,78.8,46.5,29.72,ESE,118,4.0,5.0,32,0.00,,,0.00,VWS V14.01,2013-07-07 00:00:00,
2013-07-06 18:05:00,78.7,47.2,29.72,ESE,110,4.0,5.0,33,0.00,,,0.00,VWS V14.01,2013-07-07 00:05:00,
2013-07-06 18:10:00,78.8,46.5,29.72,SSE,156,3.0,5.0,32,0.00,,,0.00,VWS V14.01,2013-07-07 00:10:00,
2013-07-06 18:15:00,78.8,48.9,29.72,South,173,3.0,5.0,35,0.00,,,0.00,VWS V14.01,2013-07-07 00:15:00,
2013-07-06 18:20:00,78.9,47.4,29.71,SE,146,2.0,4.0,33,0.00,,,0.00,VWS V14.01,2013-07-07 00:20:00,
2013-07-06 18:25:00,79.1,47.6,29.71,SSE,159,1.0,4.0,33,0.00,,,0.00,VWS V14.01,2013-07-07 00:25:00,
2013-07-06 18:30:00,79.1,48.3,29.71,SE,143,1.0,4.0,34,0.00,,,0.00,VWS V14.01,2013-07-07 00:30:00,
2013-07-06 18:35:00,79.1,50.6,29.71,SSE,150,1.0,3.0,37,0.00,,,0.00,VWS V14.01,2013-07-07 00:35:00,
2013-07-06 18:40:00,78.9,47.4,29.71,SSE,160,3.0,4.0,33,0.00,,,0.00,VWS V14.01,2013-07-07 00:40:00,
2013-07-06 18:45:00,78.0,48.2,29.72,SE,125,4.0,5.0,35,0.00,,,0.00,VWS V14.01,2013-07-07 00:45:00,
2013-07-06 18:46:00,79.0,47.5,29.70,SSE,150,1.0,3.0,33,0.00,,,0.00,VWS V14.01,2013-07-07 00:46:00,
2013-07-06 18:50:00,78.2,47.6,29.72,SSE,162,5.0,6.0,34,0.00,,,0.00,VWS V14.01,2013-07-07 00:50:00,
2013-07-06 18:51:00,79.1,45.9,29.70,SSE,150,2.0,3.0,31,0.00,,,0.00,VWS V14.01,2013-07-07 00:51:00,
2013-07-06 18:55:00,78.5,47.0,29.72,SSE,163,2.0,6.0,33,0.00,,,0.00,VWS V14.01,2013-07-07 00:55:00,
2013-07-06 18:56:00,78.8,46.5,29.70,SE,136,1.0,3.0,32,0.00,,,0.00,VWS V14.01,2013-07-07 00:56:00,
2013-07-06 19:00:00,78.7,46.4,29.72,SSE,158,3.0,5.0,32,0.00,,,0.00,VWS V14.01,2013-07-07 01:00:00,
2013-07-06 19:01:00,78.5,51.5,29.70,SE,127,0.0,0.0,39,0.00,,,0.00,VWS V14.01,2013-07-07 01:01:00,
2013-07-06 19:05:00,78.7,45.6,29.72,SE,142,2.0,5.0,31,0.00,,,0.00,VWS V14.01,2013-07-07 01:05:00,
2013-07-06 19:07:00,78.4,49.3,29.70,SE,125,1.0,1.0,36,0.00,,,0.00,VWS V14.01,2013-07-07 01:07:00,
2013-07-06 19:10:00,78.8,46.5,29.72,SSE,158,3.0,5.0,32,0.00,,,0.00,VWS V14.01,2013-07-07 01:10:00,
2013-07-06 19:12:00,78.1,47.5,29.70,SE,131,1.0,2.0,34,0.00,,,0.00,VWS V14.01,2013-07-07 01:12:00,
2013-07-06 19:15:00,78.8,48.9,29.72,SSE,155,3.0,5.0,35,0.00,,,0.00,VWS V14.01,2013-07-07 01:15:00,
2013-07-06 19:17:00,78.0,48.2,29.70,SE,138,1.0,1.0,35,0.00,,,0.00,VWS V14.01,2013-07-07 01:17:00,
2013-07-06 19:20:00,78.9,47.4,29.71,SE,129,1.0,4.0,33,0.00,,,0.00,VWS V14.01,2013-07-07 01:20:00,
2013-07-06 19:22:00,78.6,50.2,29.70,SW,218,0.0,0.0,37,0.00,,,0.00,VWS V14.01,2013-07-07 01:22:00,
2013-07-06 19:25:00,79.1,47.6,29.71,SSE,148,1.0,4.0,33,0.00,,,0.00,VWS V14.01,2013-07-07 01:25:00,
2013-07-06 19:27:00,79.0,45.8,29.70,SE,134,0.0,0.0,31,0.00,,,0.00,VWS V14.01,2013-07-07 01:27:00,
2013-07-06 19:30:00,79.1,48.3,29.71,SE,145,2.0,4.0,34,0.00,,,0.00,VWS V14.01,2013-07-07 01:30:00,
2013-07-06 19:32:00,79.1,47.6,29.70,SE,139,0.0,0.0,33,0.00,,,0.00,VWS V14.01,2013-07-07 01:32:00,
2013-07-06 19:35:00,79.1,50.6,29.71,SSE,150,1.0,3.0,37,0.00,,,0.00,VWS V14.01,2013-07-07 01:35:00,
2013-07-06 19:37:00,79.3,48.5,29.70,SSE,156,0.0,0.0,34,0.00,,,0.00,VWS V14.01,2013-07-07 01:37:00,
2013-07-06 19:40:00,78.9,47.4,29.71,SSE,160,3.0,4.0,33,0.00,,,0.00,VWS V14.01,2013-07-07 01:40:00,
2013-07-06 19:42:00,79.2,46.8,29.70,SE,144,0.0,0.0,32,0.00,,,0.00,VWS V14.01,2013-07-07 01:42:00,
2013-07-06 19:45:00,79.0,47.5,29.70,ESE,117,3.0,4.0,33,0.00,,,0.00,VWS V14.01,2013-07-07 01:45:00,
2013-07-06 19:47:00,79.0,45.8,29.70,SSE,149,0.0,0.0,31,0.00,,,0.00,VWS V14.01,2013-07-07 01:47:00,
2013-07-06 19:50:00,79.1,46.7,29.70,SE,134,2.0,3.0,32,0.00,,,0.00,VWS V14.01,2013-07-07 01:50:00,
2013-07-06 19:52:00,78.8,49.6,29.70,SE,146,1.0,2.0,36,0.00,,,0.00,VWS V14.01,2013-07-07 01:52:00,
2013-07-06 19:55:00,79.0,47.5,29.70,ESE,121,3.0,3.0,33,0.00,,,0.00,VWS V14.01,2013-07-07 01:55:00,
2013-07-06 19:58:00,78.6,50.9,29.70,SE,131,0.0,1.0,38,0.00,,,0.00,VWS V14.01,2013-07-07 01:58:00,
2013-07-06 20:00:00,78.5,50.1,29.70,SE,127,0.0,3.0,37,0.00,,,0.00,VWS V14.01,2013-07-07 02:00:00,
2013-07-06 20:03:00,78.9,49.0,29.70,SE,131,0.0,0.0,35,0.00,,,0.00,VWS V14.01,2013-07-07 02:03:00,
2013-07-06 20:05:00,78.4,47.0,29.70,ESE,120,1.0,2.0,33,0.00,,,0.00,VWS V14.01,2013-07-07 02:05:00,
2013-07-06 20:08:00,79.4,47.0,29.70,SE,131,0.0,0.0,32,0.00,,,0.00,VWS V14.01,2013-07-07 02:08:00,
2013-07-06 20:10:00,78.3,47.7,29.70,SE,138,2.0,2.0,34,0.00,,,0.00,VWS V14.01,2013-07-07 02:10:00,
2013-07-06 20:13:00,79.7,46.4,29.70,SE,131,0.0,0.0,31,0.00,,,0.00,VWS V14.01,2013-07-07 02:13:00,
2013-07-06 20:15:00,78.0,48.9,29.70,SE,138,0.0,2.0,36,0.00,,,0.00,VWS V14.01,2013-07-07 02:15:00,
2013-07-06 20:19:00,79.6,48.0,29.70,SE,131,0.0,0.0,33,0.00,,,0.00,VWS V14.01,2013-07-07 02:19:00,
2013-07-06 20:20:00,78.3,52.0,29.70,SW,219,0.0,1.0,40,0.00,,,0.00,VWS V14.01,2013-07-07 02:20:00,
2013-07-06 20:24:00,79.4,54.3,29.70,SE,131,0.0,0.0,42,0.00,,,0.00,VWS V14.01,2013-07-07 02:24:00,
2013-07-06 20:25:00,79.1,48.3,29.70,SE,134,0.0,0.0,34,0.00,,,0.00,VWS V14.01,2013-07-07 02:25:00,
2013-07-06 20:29:00,79.7,53.9,29.70,SE,131,0.0,0.0,41,0.00,,,0.00,VWS V14.01,2013-07-07 02:29:00,
2013-07-06 20:30:00,79.1,49.1,29.70,SE,140,0.0,0.0,35,0.00,,,0.00,VWS V14.01,2013-07-07 02:30:00,
2013-07-06 20:34:00,79.5,56.9,29.70,SE,129,0.0,0.0,46,0.00,,,0.00,VWS V14.01,2013-07-07 02:34:00,
2013-07-06 20:35:00,79.2,48.4,29.70,SSE,152,0.0,0.0,34,0.00,,,0.00,VWS V14.01,2013-07-07 02:35:00,
2013-07-06 20:39:00,77.4,58.4,29.70,NNE,33,0.0,0.0,52,0.00,,,0.00,VWS V14.01,2013-07-07 02:39:00,
2013-07-06 20:40:00,79.2,46.8,29.70,SE,145,0.0,0.0,32,0.00,,,0.00,VWS V14.01,2013-07-07 02:40:00,
2013-07-06 20:45:00,75.7,57.4,29.70,NNE,32,0.0,0.0,53,0.00,,,0.00,VWS V14.01,2013-07-07 02:45:00,
2013-07-06 20:50:00,74.8,58.1,29.70,NNE,31,0.0,0.0,56,0.00,,,0.00,VWS V14.01,2013-07-07 02:50:00,
2013-07-06 20:55:00,75.4,57.6,29.70,NNE,32,0.0,0.0,54,0.00,,,0.00,VWS V14.01,2013-07-07 02:55:00,
2013-07-06 21:00:00,75.3,57.0,29.70,NNE,32,0.0,0.0,53,0.00,,,0.00,VWS V14.01,2013-07-07 03:00:00,
2013-07-06 21:05:00,73.9,55.7,29.70,WNW,289,0.0,0.0,53,0.00,,,0.00,VWS V14.01,2013-07-07 03:05:00,
2013-07-06 21:10:00,71.9,55.4,29.70,West,274,1.0,4.0,56,0.00,,,0.00,VWS V14.01,2013-07-07 03:10:00,
2013-07-06 21:15:00,70.2,54.3,29.71,West,270,2.0,2.0,57,0.00,,,0.00,VWS V14.01,2013-07-07 03:15:00,
2013-07-06 21:20:00,68.5,53.2,29.71,WSW,257,2.0,3.0,58,0.00,,,0.00,VWS V14.01,2013-07-07 03:20:00,
2013-07-06 21:25:00,66.9,52.1,29.71,West,262,2.0,3.0,59,0.00,,,0.00,VWS V14.01,2013-07-07 03:25:00,
2013-07-06 21:30:00,79.9,56.1,29.70,SE,131,0.0,0.0,44,0.00,,,0.00,VWS V14.01,2013-07-07 03:30:00,
2013-07-06 21:31:00,66.0,51.7,29.71,West,267,2.0,3.0,60,0.00,,,0.00,VWS V14.01,2013-07-07 03:31:00,
2013-07-06 21:35:00,79.2,57.2,29.70,SE,129,0.0,0.0,47,0.00,,,0.00,VWS V14.01,2013-07-07 03:35:00,
2013-07-06 21:36:00,65.5,52.2,29.71,West,262,2.0,2.0,62,0.00,,,0.00,VWS V14.01,2013-07-07 03:36:00,
2013-07-06 21:40:00,77.1,58.1,29.70,NNE,32,0.0,0.0,52,0.00,,,0.00,VWS V14.01,2013-07-07 03:40:00,
2013-07-06 21:41:00,64.1,51.7,29.71,West,263,2.0,2.0,64,0.00,,,0.00,VWS V14.01,2013-07-07 03:41:00,
2013-07-06 21:45:00,75.4,57.6,29.70,NNE,32,0.0,0.0,54,0.00,,,0.00,VWS V14.01,2013-07-07 03:45:00,
2013-07-06 21:46:00,63.3,50.9,29.71,WSW,242,2.0,3.0,64,0.00,,,0.00,VWS V14.01,2013-07-07 03:46:00,
2013-07-06 21:50:00,74.8,57.6,29.70,NNE,31,0.0,0.0,55,0.00,,,0.00,VWS V14.01,2013-07-07 03:50:00,
2013-07-06 21:52:00,62.5,50.6,29.71,WSW,256,2.0,3.0,65,0.00,,,0.00,VWS V14.01,2013-07-07 03:52:00,
2013-07-06 21:55:00,75.5,57.7,29.70,NNE,32,0.0,0.0,54,0.00,,,0.00,VWS V14.01,2013-07-07 03:55:00,
2013-07-06 21:57:00,61.6,50.1,29.71,West,264,2.0,3.0,66,0.00,,,0.00,VWS V14.01,2013-07-07 03:57:00,
2013-07-06 22:00:00,75.2,56.9,29.70,NNE,32,0.0,0.0,53,0.00,,,0.00,VWS V14.01,2013-07-07 04:00:00,
2013-07-06 22:01:00,61.2,50.2,29.71,West,273,2.0,2.0,67,0.00,,,0.00,VWS V14.01,2013-07-07 04:01:00,
2013-07-06 22:02:00,61.1,50.5,29.72,West,264,2.0,2.0,68,0.00,,,0.00,VWS V14.01,2013-07-07 04:02:00,
2013-07-06 22:05:00,73.8,55.6,29.70,WNW,290,0.0,0.0,53,0.00,,,0.00,VWS V14.01,2013-07-07 04:05:00,
2013-07-06 22:07:00,60.7,50.5,29.72,West,261,1.0,1.0,69,0.00,,,0.00,VWS V14.01,2013-07-07 04:07:00,
2013-07-06 22:10:00,71.8,55.3,29.70,West,274,1.0,4.0,56,0.00,,,0.00,VWS V14.01,2013-07-07 04:10:00,
2013-07-06 22:12:00,60.8,49.8,29.72,WSW,250,1.0,1.0,67,0.00,,,0.00,VWS V14.01,2013-07-07 04:12:00,
2013-07-06 22:15:00,70.1,54.2,29.71,West,270,2.0,2.0,57,0.00,,,0.00,VWS V14.01,2013-07-07 04:15:00,
2013-07-06 22:17:00,60.5,49.5,29.72,West,264,1.0,2.0,67,0.00,,,0.00,VWS V14.01,2013-07-07 04:17:00,
2013-07-06 22:20:00,68.4,53.1,29.71,WSW,253,2.0,3.0,58,0.00,,,0.00,VWS V14.01,2013-07-07 04:20:00,
2013-07-06 22:22:00,60.5,49.5,29.72,West,270,1.0,1.0,67,0.00,,,0.00,VWS V14.01,2013-07-07 04:22:00,
2013-07-06 22:25:00,66.9,52.1,29.71,West,262,2.0,3.0,59,0.00,,,0.00,VWS V14.01,2013-07-07 04:25:00,
2013-07-06 22:27:00,60.4,49.0,29.72,West,271,1.0,1.0,66,0.00,,,0.00,VWS V14.01,2013-07-07 04:27:00,
2013-07-06 22:30:00,66.1,51.8,29.71,West,269,3.0,3.0,60,0.00,,,0.00,VWS V14.01,2013-07-07 04:30:00,
2013-07-06 22:32:00,60.3,49.3,29.72,NW,316,2.0,2.0,67,0.00,,,0.00,VWS V14.01,2013-07-07 04:32:00,
2013-07-06 22:35:00,65.5,52.2,29.71,West,262,2.0,3.0,62,0.00,,,0.00,VWS V14.01,2013-07-07 04:35:00,
2013-07-06 22:37:00,60.3,49.3,29.72,NW,318,1.0,2.0,67,0.00,,,0.00,VWS V14.01,2013-07-07 04:37:00,
2013-07-06 22:40:00,64.2,51.8,29.71,West,264,2.0,3.0,64,0.00,,,0.00,VWS V14.01,2013-07-07 04:40:00,
2013-07-06 22:42:00,60.2,50.4,29.72,North,4,1.0,1.0,70,0.00,,,0.00,VWS V14.01,2013-07-07 04:42:00,
2013-07-06 22:45:00,63.4,51.0,29.71,WSW,253,3.0,3.0,64,0.00,,,0.00,VWS V14.01,2013-07-07 04:45:00,
2013-07-06 22:47:00,59.7,50.3,29.72,NNE,31,1.0,2.0,71,0.00,,,0.00,VWS V14.01,2013-07-07 04:47:00,
2013-07-06 22:50:00,62.8,50.5,29.71,WSW,252,2.0,4.0,64,0.00,,,0.00,VWS V14.01,2013-07-07 04:50:00,
2013-07-06 22:52:00,59.8,50.4,29.72,NNE,23,2.0,2.0,71,0.00,,,0.00,VWS V14.01,2013-07-07 04:52:00,
2013-07-06 22:55:00,61.9,50.4,29.71,West,260,3.0,3.0,66,0.00,,,0.00,VWS V14.01,2013-07-07 04:55:00,
2013-07-06 22:57:00,59.5,51.9,29.73,North,354,1.0,3.0,76,0.00,,,0.00,VWS V14.01,2013-07-07 04:57:00,
2013-07-06 23:00:00,61.2,50.2,29.71,West,271,2.0,3.0,67,0.00,,,0.00,VWS V14.01,2013-07-07 05:00:00,
2013-07-06 23:02:00,59.5,51.9,29.73,West,278,1.0,2.0,76,0.00,,,0.00,VWS V14.01,2013-07-07 05:02:00,
2013-07-06 23:05:00,60.7,50.1,29.72,West,262,1.0,2.0,68,0.00,,,0.00,VWS V14.01,2013-07-07 05:05:00,
2013-07-06 23:07:00,59.6,50.6,29.73,WNW,283,1.0,1.0,72,0.00,,,0.00,VWS V14.01,2013-07-07 05:07:00,
2013-07-06 23:10:00,60.8,49.8,29.72,West,273,1.0,1.0,67,0.00,,,0.00,VWS V14.01,2013-07-07 05:10:00,
2013-07-06 23:12:00,59.6,51.0,29.73,West,268,1.0,1.0,73,0.00,,,0.00,VWS V14.01,2013-07-07 05:12:00,
2013-07-06 23:15:00,60.6,49.6,29.72,WSW,252,1.0,2.0,67,0.00,,,0.00,VWS V14.01,2013-07-07 05:15:00,
2013-07-06 23:17:00,59.3,50.7,29.73,West,267,0.0,0.0,73,0.00,,,0.00,VWS V14.01,2013-07-07 05:17:00,
2013-07-06 23:20:00,60.5,49.5,29.72,West,270,1.0,2.0,67,0.00,,,0.00,VWS V14.01,2013-07-07 05:20:00,
2013-07-06 23:22:00,58.8,50.9,29.73,West,262,0.0,0.0,75,0.00,,,0.00,VWS V14.01,2013-07-07 05:22:00,
2013-07-06 23:25:00,60.5,49.1,29.72,West,271,0.0,1.0,66,0.00,,,0.00,VWS V14.01,2013-07-07 05:25:00,
2013-07-06 23:27:00,58.0,49.4,29.73,West,263,3.0,3.0,73,0.00,,,0.00,VWS V14.01,2013-07-07 05:27:00,
2013-07-06 23:30:00,60.3,49.3,29.72,West,271,1.0,1.0,67,0.00,,,0.00,VWS V14.01,2013-07-07 05:30:00,
2013-07-06 23:32:00,57.6,49.0,29.73,WSW,258,1.0,2.0,73,0.00,,,0.00,VWS V14.01,2013-07-07 05:32:00,
2013-07-06 23:35:00,60.3,49.3,29.72,NW,316,1.0,3.0,67,0.00,,,0.00,VWS V14.01,2013-07-07 05:35:00,
2013-07-06 23:37:00,58.1,49.5,29.73,WSW,257,0.0,0.0,73,0.00,,,0.00,VWS V14.01,2013-07-07 05:37:00,
2013-07-06 23:40:00,60.2,50.0,29.72,North,4,1.0,2.0,69,0.00,,,0.00,VWS V14.01,2013-07-07 05:40:00,
2013-07-06 23:42:00,57.8,49.2,29.73,WSW,242,0.0,0.0,73,0.00,,,0.00,VWS V14.01,2013-07-07 05:42:00,
2013-07-06 23:45:00,59.9,50.1,29.73,NNE,32,2.0,2.0,70,0.00,,,0.00,VWS V14.01,2013-07-07 05:45:00,
2013-07-06 23:47:00,57.2,49.0,29.73,WSW,246,0.0,0.0,74,0.00,,,0.00,VWS V14.01,2013-07-07 05:47:00,
2013-07-06 23:50:00,59.9,50.5,29.73,NNE,30,1.0,2.0,71,0.00,,,0.00,VWS V14.01,2013-07-07 05:50:00,
2013-07-06 23:52:00,56.9,48.7,29.74,West,263,0.0,0.0,74,0.00,,,0.00,VWS V14.01,2013-07-07 05:52:00,
2013-07-06 23:55:00,59.5,51.6,29.73,North,11,3.0,4.0,75,0.00,,,0.00,VWS V14.01,2013-07-07 05:55:00,
2013-07-06 23:57:00,56.7,48.5,29.74,West,266,0.0,0.0,74,0.00,,,0.00,VWS V14.01,2013-07-07 05:57:00,